Main page
METAR-TAF:

METAR-TAF

Airports :

Quesnel Airport

Quesnel, British Columbia, Canada

latitude: 53-02N, longitude: 122-31W, elevation: 545 m

Current weather observation

The report was made 1 hour and 9 minutes ago, at 05:00 UTC
Wind 9 kt from the West/Northwest
Temperature 24°C
Humidity 54%
Pressure 1012 hPa
Visibility: 14.5 km
Clear sky

METAR: CYQZ 180500Z AUTO 30009KT 9SM CLR 24/14 A2989 RMK SLP122 DENSITY ALT 3300FT

Time: 23:09 (06:09 UTC)

Forecast

The report was made 5 hours and 29 minutes ago, at 00:40 UTC
Forecast valid from 18 at 01 UTC to 18 at 06 UTC
Wind 3 kt from variable directions
Visibility: 10 km
Clear sky

TAF: CYQZ 180040Z 1801/1806 VRB03KT P6SM SKC RMK FCST BASED ON AUTO OBS. NXT FCST BY 181200Z

Weather observations and forecasts of more than 4000 airports (METAR and TAF reports).

The available stations are represented by yellow and red dots on the map.

Hover mouse over dot to see the name of the station.

Then click to see weather observations and forecasts.

To change the map : click on the green buttons with a black cross to zoom in, on the green button with a dash to zoom out, or on the green arrows for adjacent maps.


METAR-TAF: